createdAt,value
2022-09-30T00:01:30.220Z,7.75
2022-09-30T00:03:59.903Z,7.72
2022-09-30T00:06:29.650Z,7.66
2022-09-30T00:08:57.730Z,7.64
2022-09-30T00:11:27.294Z,7.60
2022-09-30T00:13:55.997Z,7.64
2022-09-30T00:16:25.042Z,7.63
2022-09-30T00:18:55.310Z,7.64
2022-09-30T00:21:25.568Z,7.61
2022-09-30T00:23:53.570Z,7.61
2022-09-30T00:26:24.631Z,7.69
2022-09-30T00:28:53.975Z,7.71
2022-09-30T00:31:23.715Z,7.80
2022-09-30T00:34:05.458Z,7.62
2022-09-30T00:36:35.059Z,7.60
2022-09-30T00:39:02.915Z,7.60
2022-09-30T00:41:30.591Z,7.57
2022-09-30T00:43:58.143Z,7.56
2022-09-30T00:46:33.340Z,7.63
2022-09-30T00:49:06.104Z,7.56
2022-09-30T00:51:40.178Z,7.57
2022-09-30T00:54:12.087Z,7.45
2022-09-30T00:56:43.735Z,7.49
2022-09-30T00:59:15.801Z,7.43
2022-09-30T01:01:43.563Z,7.35
2022-09-30T01:04:14.027Z,7.40
2022-09-30T01:06:44.061Z,7.29
2022-09-30T01:09:12.490Z,7.30
2022-09-30T01:11:40.315Z,7.25
2022-09-30T01:14:12.421Z,7.21
2022-09-30T01:16:59.140Z,7.23
2022-09-30T01:19:58.956Z,7.17
2022-09-30T01:22:42.495Z,7.10
2022-09-30T01:25:39.927Z,7.02
2022-09-30T01:28:28.292Z,6.96
2022-09-30T01:31:07.236Z,6.99
2022-09-30T01:33:46.286Z,7.01
2022-09-30T01:36:28.453Z,7.05
2022-09-30T01:39:04.430Z,7.04
2022-09-30T01:41:42.196Z,7.05
2022-09-30T01:44:17.586Z,7.05
2022-09-30T01:46:51.748Z,6.97
2022-09-30T01:49:25.913Z,6.87
2022-09-30T01:52:00.028Z,6.78
2022-09-30T01:54:36.402Z,6.80
2022-09-30T01:57:09.386Z,6.76
2022-09-30T01:59:42.471Z,6.71
2022-09-30T02:02:17.948Z,6.65
2022-09-30T02:04:51.572Z,6.64
2022-09-30T02:07:26.042Z,6.72
2022-09-30T02:09:59.875Z,6.71
2022-09-30T02:12:34.861Z,6.63
2022-09-30T02:15:06.664Z,6.62
2022-09-30T02:17:43.093Z,6.59
2022-09-30T02:20:15.038Z,6.52
2022-09-30T02:22:46.494Z,6.49
2022-09-30T02:25:20.432Z,6.43
2022-09-30T02:27:54.957Z,6.39
2022-09-30T02:30:25.263Z,6.37
2022-09-30T02:32:58.738Z,6.38
2022-09-30T02:35:29.904Z,6.42
2022-09-30T02:38:03.424Z,6.48
2022-09-30T02:40:36.881Z,6.38
2022-09-30T02:43:06.425Z,6.45
2022-09-30T02:45:40.363Z,6.48
2022-09-30T02:48:25.229Z,6.40
2022-09-30T02:50:58.571Z,6.32
2022-09-30T02:53:32.531Z,6.34
2022-09-30T02:56:20.506Z,6.33
2022-09-30T02:58:50.669Z,6.48
2022-09-30T03:01:18.858Z,6.43
2022-09-30T03:03:51.593Z,6.37
2022-09-30T03:06:20.355Z,6.37
2022-09-30T03:08:48.511Z,6.29
2022-09-30T03:11:18.771Z,6.21
2022-09-30T03:14:03.719Z,6.25
2022-09-30T03:16:46.575Z,6.31
2022-09-30T03:19:36.978Z,6.26
2022-09-30T03:22:24.748Z,6.23
2022-09-30T03:25:12.132Z,6.17
2022-09-30T03:27:51.774Z,6.08
2022-09-30T03:30:24.534Z,6.01
2022-09-30T03:33:07.385Z,5.97
2022-09-30T03:35:48.409Z,5.99
2022-09-30T03:38:29.566Z,6.10
2022-09-30T03:41:05.833Z,6.13
2022-09-30T03:43:36.931Z,6.00
2022-09-30T03:46:13.712Z,5.98
2022-09-30T03:48:43.469Z,6.01
2022-09-30T03:51:13.055Z,5.99
2022-09-30T03:53:42.120Z,5.89
2022-09-30T03:56:10.161Z,5.84
2022-09-30T03:58:42.252Z,5.85
2022-09-30T04:01:19.138Z,5.87
2022-09-30T04:03:47.651Z,5.76
2022-09-30T04:06:16.581Z,5.76
2022-09-30T04:08:44.373Z,5.87
2022-09-30T04:11:12.689Z,5.87
2022-09-30T04:13:40.356Z,5.87
2022-09-30T04:16:09.026Z,5.79
2022-09-30T04:18:37.257Z,5.85
2022-09-30T04:21:07.268Z,5.76
2022-09-30T04:23:41.689Z,5.74
2022-09-30T04:26:12.608Z,5.74
2022-09-30T04:28:40.199Z,5.68
2022-09-30T04:31:08.455Z,5.68
2022-09-30T04:33:36.143Z,5.66
2022-09-30T04:36:04.769Z,5.65
2022-09-30T04:38:32.402Z,5.59
2022-09-30T04:41:03.869Z,5.56
2022-09-30T04:43:31.451Z,5.59
2022-09-30T04:45:59.218Z,5.60
2022-09-30T04:48:28.046Z,5.65
2022-09-30T04:50:55.660Z,5.65
2022-09-30T04:53:23.219Z,5.61
2022-09-30T04:55:50.841Z,5.56
2022-09-30T04:58:19.918Z,5.50
2022-09-30T05:00:47.531Z,5.45
2022-09-30T05:03:15.343Z,5.47
2022-09-30T05:05:45.397Z,5.61
2022-09-30T05:08:12.976Z,5.63
2022-09-30T05:10:40.626Z,5.47
2022-09-30T05:13:08.316Z,5.57
2022-09-30T05:15:37.388Z,5.45
2022-09-30T05:18:05.978Z,5.45
2022-09-30T05:20:33.883Z,5.48
2022-09-30T05:23:01.568Z,5.46
2022-09-30T05:25:29.515Z,5.50
2022-09-30T05:27:57.080Z,5.58
2022-09-30T05:30:24.860Z,5.66
2022-09-30T05:32:53.987Z,5.64
2022-09-30T05:35:21.639Z,5.67
2022-09-30T05:37:49.264Z,5.71
2022-09-30T05:40:17.232Z,5.74
2022-09-30T05:42:47.291Z,5.77
2022-09-30T05:45:14.971Z,5.70
2022-09-30T05:47:42.591Z,5.74
2022-09-30T05:50:11.881Z,5.85
2022-09-30T05:52:39.499Z,5.96
2022-09-30T05:55:07.814Z,6.06
2022-09-30T05:57:36.249Z,6.18
2022-09-30T06:00:06.570Z,6.56
2022-09-30T06:02:38.346Z,7.53
2022-09-30T06:05:08.507Z,8.19
2022-09-30T06:07:38.707Z,8.96
2022-09-30T06:10:12.567Z,9.89
2022-09-30T06:12:40.812Z,10.71
2022-09-30T06:15:10.257Z,10.96
2022-09-30T06:17:38.283Z,11.74
2022-09-30T06:20:06.625Z,12.20
2022-09-30T06:22:36.013Z,11.91
2022-09-30T06:25:09.235Z,11.73
2022-09-30T06:27:38.092Z,12.43
2022-09-30T06:30:08.482Z,12.85
2022-09-30T06:32:36.221Z,12.80
2022-09-30T06:35:04.107Z,13.00
2022-09-30T06:37:31.682Z,12.95
2022-09-30T06:39:59.309Z,13.29
2022-09-30T06:42:28.542Z,13.45
2022-09-30T06:44:56.402Z,13.00
2022-09-30T06:47:26.010Z,14.13
2022-09-30T06:49:58.571Z,14.30
2022-09-30T06:52:27.197Z,15.01
2022-09-30T06:54:56.557Z,13.79
2022-09-30T06:57:26.675Z,13.32
2022-09-30T06:59:55.745Z,14.67
2022-09-30T07:02:23.498Z,14.03
2022-09-30T07:04:51.258Z,14.45
2022-09-30T07:07:21.940Z,12.88
2022-09-30T07:09:49.762Z,12.83
2022-09-30T07:12:17.693Z,13.95
2022-09-30T07:14:45.336Z,13.00
2022-09-30T07:17:14.237Z,13.54
2022-09-30T07:19:41.861Z,13.87
2022-09-30T07:22:27.165Z,14.83
2022-09-30T07:24:55.209Z,15.16
2022-09-30T07:27:22.801Z,16.06
2022-09-30T07:30:08.252Z,13.54
2022-09-30T07:32:39.547Z,14.04
2022-09-30T07:35:07.947Z,14.72
2022-09-30T07:37:36.807Z,15.52
2022-09-30T07:40:06.883Z,15.58
2022-09-30T07:42:37.551Z,16.32
2022-09-30T07:45:06.130Z,14.78
2022-09-30T07:47:34.310Z,14.72
2022-09-30T07:50:04.007Z,14.56
2022-09-30T07:52:31.705Z,14.52
2022-09-30T07:54:59.272Z,14.68
2022-09-30T07:57:26.938Z,16.04
2022-09-30T07:59:54.609Z,14.55
2022-09-30T08:02:24.527Z,15.65
2022-09-30T08:04:52.322Z,15.44
2022-09-30T08:07:21.284Z,16.14
2022-09-30T08:09:49.039Z,15.99
2022-09-30T08:12:16.663Z,13.60
2022-09-30T08:14:45.350Z,14.43
2022-09-30T08:17:15.738Z,13.72
2022-09-30T08:19:44.728Z,15.05
2022-09-30T08:22:14.184Z,13.57
2022-09-30T08:24:43.301Z,14.41
2022-09-30T08:27:11.292Z,12.83
2022-09-30T08:29:56.133Z,13.70
2022-09-30T08:32:25.136Z,13.28
2022-09-30T08:34:52.721Z,12.80
2022-09-30T08:37:20.289Z,12.69
2022-09-30T08:39:49.509Z,13.49
2022-09-30T08:42:43.745Z,13.84
2022-09-30T08:45:27.103Z,14.60
2022-09-30T08:48:06.443Z,12.78
2022-09-30T08:50:45.059Z,12.90
2022-09-30T08:53:17.223Z,12.71
2022-09-30T08:55:47.402Z,12.35
2022-09-30T08:58:25.321Z,12.64
2022-09-30T09:00:58.122Z,12.84
2022-09-30T09:03:29.397Z,12.86
2022-09-30T09:06:05.135Z,12.56
2022-09-30T09:08:49.166Z,12.86
2022-09-30T09:11:33.878Z,13.30
2022-09-30T09:14:08.116Z,13.33
2022-09-30T09:16:41.946Z,13.39
2022-09-30T09:19:11.778Z,13.64
2022-09-30T09:21:51.467Z,13.67
2022-09-30T09:24:22.082Z,13.36
2022-09-30T09:26:53.949Z,12.98
2022-09-30T09:29:39.593Z,13.03
2022-09-30T09:32:14.214Z,13.39
2022-09-30T09:34:42.977Z,13.49
2022-09-30T09:37:22.149Z,13.79
2022-09-30T09:40:04.598Z,13.88
2022-09-30T09:42:47.621Z,13.71
2022-09-30T09:45:27.495Z,13.77
2022-09-30T09:47:57.200Z,13.89
2022-09-30T09:50:28.850Z,14.07
2022-09-30T09:53:22.076Z,14.35
2022-09-30T09:55:50.881Z,14.67
2022-09-30T09:58:20.782Z,14.78
2022-09-30T10:01:28.589Z,14.56
2022-09-30T10:04:12.483Z,14.79
2022-09-30T10:06:45.160Z,14.96
2022-09-30T10:09:28.325Z,15.02
2022-09-30T10:12:26.865Z,14.76
2022-09-30T10:15:01.301Z,14.92
2022-09-30T10:17:30.636Z,14.73
2022-09-30T10:20:08.635Z,14.84
2022-09-30T10:22:37.767Z,15.07
2022-09-30T10:25:19.443Z,14.88
2022-09-30T10:27:53.713Z,14.88
2022-09-30T10:30:42.837Z,14.73
2022-09-30T10:33:17.389Z,14.88
2022-09-30T10:35:54.237Z,14.99
2022-09-30T10:38:22.492Z,15.20
2022-09-30T10:40:52.034Z,15.33
2022-09-30T10:43:29.979Z,15.44
2022-09-30T10:46:24.529Z,15.72
2022-09-30T10:48:54.249Z,15.88
2022-09-30T10:51:31.398Z,15.74
2022-09-30T10:53:59.306Z,15.59
2022-09-30T10:56:43.941Z,15.62
2022-09-30T10:59:19.891Z,15.56
2022-09-30T11:01:57.467Z,15.59
2022-09-30T11:04:34.990Z,15.61
2022-09-30T11:07:13.480Z,15.72
2022-09-30T11:09:49.825Z,15.77
2022-09-30T11:12:24.468Z,15.79
2022-09-30T11:15:03.216Z,15.55
2022-09-30T11:17:37.921Z,15.45
2022-09-30T11:20:15.352Z,15.56
2022-09-30T11:22:49.654Z,15.38
2022-09-30T11:25:24.852Z,15.10
2022-09-30T11:28:16.731Z,15.11
2022-09-30T11:30:53.397Z,15.34
2022-09-30T11:33:41.090Z,15.74
2022-09-30T11:36:18.655Z,15.64
2022-09-30T11:39:05.107Z,15.11
2022-09-30T11:41:36.829Z,15.52
2022-09-30T11:44:19.418Z,15.82
2022-09-30T11:47:22.742Z,15.88
2022-09-30T11:50:07.913Z,16.10
2022-09-30T11:52:46.516Z,16.40
2022-09-30T11:55:36.804Z,16.00
2022-09-30T11:58:28.590Z,16.41
2022-09-30T12:01:10.028Z,16.08
2022-09-30T12:03:42.914Z,16.53
2022-09-30T12:06:26.420Z,16.58
2022-09-30T12:08:59.722Z,16.67
2022-09-30T12:11:35.533Z,16.68
2022-09-30T12:14:08.586Z,16.63
2022-09-30T12:16:38.867Z,16.90
2022-09-30T12:19:16.202Z,16.93
2022-09-30T12:21:54.156Z,16.75
2022-09-30T12:24:30.679Z,17.17
2022-09-30T12:26:59.513Z,16.84
2022-09-30T12:29:50.625Z,16.32
2022-09-30T12:32:44.955Z,16.11
2022-09-30T12:35:36.449Z,16.07
2022-09-30T12:38:21.900Z,16.09
2022-09-30T12:41:03.357Z,16.03
2022-09-30T12:44:05.759Z,16.38
2022-09-30T12:46:53.074Z,16.64
2022-09-30T12:49:26.272Z,16.52
2022-09-30T12:51:57.826Z,16.53
2022-09-30T12:54:32.149Z,16.99
2022-09-30T12:57:03.948Z,17.18
2022-09-30T12:59:34.925Z,17.15
2022-09-30T13:02:06.234Z,16.97
2022-09-30T13:04:36.668Z,16.56
2022-09-30T13:07:22.874Z,16.53
2022-09-30T13:10:26.518Z,16.90
2022-09-30T13:13:17.834Z,16.82
2022-09-30T13:15:46.226Z,16.58
2022-09-30T13:18:51.574Z,16.27
2022-09-30T13:21:22.946Z,16.00
2022-09-30T13:23:51.905Z,15.74
2022-09-30T13:26:41.613Z,15.80
2022-09-30T13:29:39.193Z,16.20
2022-09-30T13:32:09.324Z,16.22
2022-09-30T13:34:55.959Z,16.03
2022-09-30T13:37:39.392Z,16.12
2022-09-30T13:40:17.794Z,16.44
2022-09-30T13:42:54.635Z,16.62
2022-09-30T13:45:36.369Z,17.19
2022-09-30T13:48:12.482Z,17.41
2022-09-30T13:50:46.446Z,17.41
2022-09-30T13:53:20.485Z,17.61
2022-09-30T13:55:53.604Z,17.33
2022-09-30T13:58:45.731Z,17.14
2022-09-30T14:01:26.448Z,16.93
2022-09-30T14:04:23.384Z,16.97
2022-09-30T14:07:06.011Z,17.00
2022-09-30T14:09:53.469Z,17.32
2022-09-30T14:12:46.575Z,17.44
2022-09-30T14:15:57.297Z,17.63
2022-09-30T14:18:47.140Z,17.76
2022-09-30T14:21:27.998Z,17.62
2022-09-30T14:24:01.246Z,17.51
2022-09-30T14:26:53.427Z,17.37
2022-09-30T14:29:29.601Z,17.10
2022-09-30T14:31:59.855Z,17.06
2022-09-30T14:34:31.494Z,16.87
2022-09-30T14:36:59.459Z,16.83
2022-09-30T14:39:30.441Z,16.70
2022-09-30T14:42:01.961Z,16.81
2022-09-30T14:44:33.870Z,16.76
2022-09-30T14:47:05.868Z,16.66
2022-09-30T14:49:37.421Z,16.59
2022-09-30T14:52:06.578Z,16.48
2022-09-30T14:54:34.687Z,16.45
2022-09-30T14:57:04.451Z,16.43
2022-09-30T14:59:34.401Z,16.27
2022-09-30T15:02:05.814Z,16.19
2022-09-30T15:04:36.535Z,15.97
2022-09-30T15:07:07.151Z,15.87
2022-09-30T15:09:37.666Z,15.58
2022-09-30T15:12:08.234Z,15.68
2022-09-30T15:14:46.844Z,15.73
2022-09-30T15:17:21.059Z,15.78
2022-09-30T15:19:50.202Z,15.84
2022-09-30T15:22:19.473Z,15.79
2022-09-30T15:24:48.344Z,15.78
2022-09-30T15:27:20.851Z,15.79
2022-09-30T15:29:55.689Z,15.81
2022-09-30T15:32:27.844Z,15.72
2022-09-30T15:34:58.620Z,15.66
2022-09-30T15:37:33.180Z,15.65
2022-09-30T15:40:20.187Z,15.63
2022-09-30T15:42:55.691Z,15.58
2022-09-30T15:45:35.125Z,15.57
2022-09-30T15:48:06.726Z,15.54
2022-09-30T15:50:42.186Z,15.50
2022-09-30T15:53:18.232Z,15.44
2022-09-30T15:55:50.408Z,15.38
2022-09-30T15:58:39.424Z,15.22
2022-09-30T16:01:15.116Z,15.10
2022-09-30T16:03:54.272Z,15.12
2022-09-30T16:06:26.357Z,15.09
2022-09-30T16:08:59.079Z,15.03
2022-09-30T16:11:30.254Z,15.04
2022-09-30T16:14:00.395Z,14.93
2022-09-30T16:16:32.267Z,14.82
2022-09-30T16:19:03.036Z,14.81
2022-09-30T16:21:44.341Z,14.74
2022-09-30T16:24:43.278Z,14.71
2022-09-30T16:27:29.096Z,14.62
2022-09-30T16:29:57.616Z,14.50
2022-09-30T16:32:26.789Z,14.44
2022-09-30T16:34:56.248Z,14.32
2022-09-30T16:37:24.588Z,14.28
2022-09-30T16:39:52.408Z,14.15
2022-09-30T16:42:20.839Z,14.03
2022-09-30T16:44:48.581Z,13.97
2022-09-30T16:47:17.744Z,13.96
2022-09-30T16:49:47.304Z,13.83
2022-09-30T16:52:17.342Z,13.79
2022-09-30T16:54:45.044Z,13.70
2022-09-30T16:57:14.909Z,13.62
2022-09-30T16:59:42.971Z,13.56
2022-09-30T17:02:15.650Z,13.46
2022-09-30T17:04:47.171Z,13.38
2022-09-30T17:07:16.326Z,13.32
2022-09-30T17:09:44.841Z,13.29
2022-09-30T17:12:14.100Z,13.14
2022-09-30T17:14:45.209Z,13.12
2022-09-30T17:17:13.954Z,13.01
2022-09-30T17:19:42.103Z,12.96
2022-09-30T17:22:09.824Z,12.90
2022-09-30T17:24:38.752Z,12.91
2022-09-30T17:27:07.388Z,12.93
2022-09-30T17:29:41.692Z,12.80
2022-09-30T17:32:10.577Z,12.77
2022-09-30T17:34:38.393Z,12.76
2022-09-30T17:39:40.293Z,12.63
2022-09-30T17:42:26.167Z,12.59
2022-09-30T17:44:54.068Z,12.51
2022-09-30T17:47:22.340Z,12.47
2022-09-30T17:49:50.256Z,12.41
2022-09-30T17:52:18.107Z,12.40
2022-09-30T17:54:52.440Z,12.34
2022-09-30T17:57:24.218Z,12.38
2022-09-30T17:59:51.975Z,12.31
2022-09-30T18:02:21.211Z,12.26
2022-09-30T18:04:49.502Z,12.20
2022-09-30T18:07:17.161Z,12.12
2022-09-30T18:09:44.822Z,12.10
2022-09-30T18:12:13.870Z,12.10
2022-09-30T18:14:43.723Z,12.11
2022-09-30T18:17:11.395Z,12.19
2022-09-30T18:19:39.028Z,12.14
2022-09-30T18:22:06.768Z,12.15
2022-09-30T18:24:51.909Z,12.06
2022-09-30T18:27:22.654Z,12.04
2022-09-30T18:29:50.380Z,11.94
2022-09-30T18:32:19.355Z,11.97
2022-09-30T18:34:47.032Z,11.88
2022-09-30T18:37:14.689Z,11.86
2022-09-30T18:39:42.330Z,11.84
2022-09-30T18:42:09.915Z,11.79
2022-09-30T18:44:40.066Z,11.82
2022-09-30T18:47:07.942Z,11.83
2022-09-30T18:49:35.558Z,11.75
2022-09-30T18:52:03.229Z,11.70
2022-09-30T18:54:32.131Z,11.61
2022-09-30T18:56:59.919Z,11.61
2022-09-30T18:59:27.676Z,11.51
2022-09-30T19:01:58.444Z,11.47
2022-09-30T19:04:26.117Z,11.47
2022-09-30T19:06:54.037Z,11.43
2022-09-30T19:09:24.548Z,11.41
2022-09-30T19:11:55.511Z,11.36
2022-09-30T19:14:24.854Z,11.30
2022-09-30T19:16:52.663Z,11.25
2022-09-30T19:19:23.136Z,11.35
2022-09-30T19:21:50.988Z,11.24
2022-09-30T19:24:18.828Z,11.20
2022-09-30T19:26:47.916Z,11.17
2022-09-30T19:29:16.121Z,11.20
2022-09-30T19:31:45.221Z,11.16
2022-09-30T19:34:17.247Z,11.14
2022-09-30T19:36:59.681Z,11.12
2022-09-30T19:39:38.031Z,11.17
2022-09-30T19:42:15.012Z,11.10
2022-09-30T19:44:42.830Z,11.13
2022-09-30T19:47:11.052Z,11.17
2022-09-30T19:49:38.910Z,11.15
2022-09-30T19:52:17.122Z,11.15
2022-09-30T19:54:48.796Z,11.14
2022-09-30T19:57:16.401Z,11.14
2022-09-30T19:59:45.023Z,11.20
2022-09-30T20:02:12.863Z,11.24
2022-09-30T20:04:43.682Z,11.30
2022-09-30T20:07:14.905Z,11.35
2022-09-30T20:09:43.443Z,11.51
2022-09-30T20:12:11.264Z,11.54
2022-09-30T20:14:56.791Z,11.50
2022-09-30T20:17:24.413Z,11.50
2022-09-30T20:20:06.038Z,11.44
2022-09-30T20:22:35.127Z,11.46
2022-09-30T20:25:03.254Z,11.36
2022-09-30T20:27:34.090Z,11.27
2022-09-30T20:30:03.112Z,11.28
2022-09-30T20:32:31.100Z,11.20
2022-09-30T20:35:00.036Z,11.12
2022-09-30T20:37:27.646Z,11.05
2022-09-30T20:39:57.653Z,11.01
2022-09-30T20:42:32.714Z,10.95
2022-09-30T20:45:01.069Z,10.88
2022-09-30T20:47:28.708Z,10.94
2022-09-30T20:49:59.558Z,10.85
2022-09-30T20:52:28.830Z,10.83
2022-09-30T20:55:01.935Z,10.83
2022-09-30T20:57:30.897Z,10.78
2022-09-30T20:59:59.679Z,10.78
2022-09-30T21:02:28.839Z,10.79
2022-09-30T21:04:58.219Z,10.75
2022-09-30T21:07:25.935Z,10.81
2022-09-30T21:09:53.674Z,10.76
2022-09-30T21:12:22.850Z,10.71
2022-09-30T21:14:50.458Z,10.69
2022-09-30T21:17:18.299Z,10.60
2022-09-30T21:19:46.120Z,10.57
2022-09-30T21:22:13.688Z,10.54
2022-09-30T21:24:41.534Z,10.51
2022-09-30T21:27:09.672Z,10.48
2022-09-30T21:29:38.581Z,10.47
2022-09-30T21:32:06.422Z,10.47
2022-09-30T21:34:34.659Z,10.41
2022-09-30T21:37:02.859Z,10.29
2022-09-30T21:39:30.497Z,10.24
2022-09-30T21:41:58.372Z,10.18
2022-09-30T21:44:26.107Z,10.08
2022-09-30T21:46:55.170Z,10.00
2022-09-30T21:49:24.375Z,9.92
2022-09-30T21:51:52.824Z,9.88
2022-09-30T21:54:20.853Z,9.89
2022-09-30T21:56:49.333Z,9.83
2022-09-30T21:59:17.250Z,9.76
2022-09-30T22:01:45.276Z,9.72
2022-09-30T22:04:14.315Z,9.68
2022-09-30T22:06:41.897Z,9.64
2022-09-30T22:09:10.584Z,9.65
2022-09-30T22:11:38.628Z,9.61
2022-09-30T22:14:06.294Z,9.66
2022-09-30T22:16:35.727Z,9.62
2022-09-30T22:19:05.290Z,9.67
2022-09-30T22:21:37.810Z,9.65
2022-09-30T22:24:07.889Z,9.60
2022-09-30T22:26:37.085Z,9.60
2022-09-30T22:29:06.382Z,9.57
2022-09-30T22:31:34.822Z,9.55
2022-09-30T22:34:23.598Z,9.58
2022-09-30T22:37:11.254Z,9.54
2022-09-30T22:39:38.968Z,9.65
2022-09-30T22:42:07.215Z,9.54
2022-09-30T22:44:36.660Z,9.55
2022-09-30T22:47:05.186Z,9.54
2022-09-30T22:49:33.148Z,9.61
2022-09-30T22:52:03.640Z,9.58
2022-09-30T22:54:31.853Z,9.61
2022-09-30T22:56:59.997Z,9.66
2022-09-30T22:59:28.612Z,9.62
2022-09-30T23:01:57.038Z,9.64
2022-09-30T23:04:26.154Z,9.61
2022-09-30T23:06:56.069Z,9.61
2022-09-30T23:09:25.635Z,9.59
2022-09-30T23:11:54.881Z,9.59
2022-09-30T23:14:23.616Z,9.52
2022-09-30T23:16:51.785Z,9.49
2022-09-30T23:19:19.615Z,9.45
2022-09-30T23:21:47.232Z,9.47
2022-09-30T23:24:15.143Z,9.47
2022-09-30T23:26:44.439Z,9.44
2022-09-30T23:29:14.444Z,9.37
2022-09-30T23:31:42.965Z,9.44
2022-09-30T23:34:10.849Z,9.38
2022-09-30T23:36:38.964Z,9.35
2022-09-30T23:39:09.321Z,9.33
2022-09-30T23:41:37.336Z,9.29
2022-09-30T23:44:06.925Z,9.31
2022-09-30T23:46:34.576Z,9.26
2022-09-30T23:49:02.188Z,9.29
2022-09-30T23:51:29.913Z,9.28
2022-09-30T23:53:57.705Z,9.32
2022-09-30T23:56:25.369Z,9.32
2022-09-30T23:58:53.140Z,9.26
